sensor_id;sensor_type;location;lat;lon;timestamp;P1;P2;P0
74436;PMS7003;62868;52.360;30.424;2023-03-19T00:04:04;0;0;0
74436;PMS7003;62868;52.360;30.424;2023-03-19T00:09:02;0;0;0
74436;PMS7003;62868;52.360;30.424;2023-03-19T00:13:32;0;0;0
74436;PMS7003;62868;52.360;30.424;2023-03-19T00:19:08;0;0;0
74436;PMS7003;62868;52.360;30.424;2023-03-19T00:23:50;0;0;0
74436;PMS7003;62868;52.360;30.424;2023-03-19T00:28:38;0;0;0
74436;PMS7003;62868;52.360;30.424;2023-03-19T00:34:08;0;0;0
74436;PMS7003;62868;52.360;30.424;2023-03-19T00:39:20;0;0;0
74436;PMS7003;62868;52.360;30.424;2023-03-19T00:43:44;0;0;0
74436;PMS7003;62868;52.360;30.424;2023-03-19T00:49:08;0;0;0
74436;PMS7003;62868;52.360;30.424;2023-03-19T00:54:09;0;0;0
74436;PMS7003;62868;52.360;30.424;2023-03-19T00:59:04;0;0;0
74436;PMS7003;62868;52.360;30.424;2023-03-19T01:03:38;0.7;0;0
74436;PMS7003;62868;52.360;30.424;2023-03-19T01:09:04;1;0;0
74436;PMS7003;62868;52.360;30.424;2023-03-19T01:14:20;0.8;0.3;0
74436;PMS7003;62868;52.360;30.424;2023-03-19T01:19:22;0;0;0
74436;PMS7003;62868;52.360;30.424;2023-03-19T01:23:32;0;0;0
74436;PMS7003;62868;52.360;30.424;2023-03-19T01:29:22;0;0;0
74436;PMS7003;62868;52.360;30.424;2023-03-19T01:34:08;0.3;0;0
74436;PMS7003;62868;52.360;30.424;2023-03-19T01:38:32;0.3;0;0
74436;PMS7003;62868;52.360;30.424;2023-03-19T01:43:32;2.3;0.7;0
74436;PMS7003;62868;52.360;30.424;2023-03-19T01:49:22;0.7;0.3;0
74436;PMS7003;62868;52.360;30.424;2023-03-19T01:53:38;0.5;0.3;0
74436;PMS7003;62868;52.360;30.424;2023-03-19T01:58:34;0;0;0
74436;PMS7003;62868;52.360;30.424;2023-03-19T02:04:22;0;0;0
74436;PMS7003;62868;52.360;30.424;2023-03-19T02:08:38;0;0;0
74436;PMS7003;62868;52.360;30.424;2023-03-19T02:13:48;0;0;0
74436;PMS7003;62868;52.360;30.424;2023-03-19T02:18:32;0;0;0
74436;PMS7003;62868;52.360;30.424;2023-03-19T02:24:05;0.3;0;0
74436;PMS7003;62868;52.360;30.424;2023-03-19T02:29:08;0.8;0;0
74436;PMS7003;62868;52.360;30.424;2023-03-19T02:33:32;0;0;0
74436;PMS7003;62868;52.360;30.424;2023-03-19T02:38:50;0;0;0
74436;PMS7003;62868;52.360;30.424;2023-03-19T02:44:06;0.7;0;0
74436;PMS7003;62868;52.360;30.424;2023-03-19T02:49:22;0.3;0;0
74436;PMS7003;62868;52.360;30.424;2023-03-19T02:53:50;0;0;0
74436;PMS7003;62868;52.360;30.424;2023-03-19T02:58:48;0;0;0
74436;PMS7003;62868;52.360;30.424;2023-03-19T03:03:38;0.3;0;0
74436;PMS7003;62868;52.360;30.424;2023-03-19T03:09:20;0;0;0
74436;PMS7003;62868;52.360;30.424;2023-03-19T03:13:48;0;0;0
74436;PMS7003;62868;52.360;30.424;2023-03-19T03:18:38;0;0;0
74436;PMS7003;62868;52.360;30.424;2023-03-19T03:24:20;0;0;0
74436;PMS7003;62868;52.360;30.424;2023-03-19T03:28:50;0;0;0
74436;PMS7003;62868;52.360;30.424;2023-03-19T03:33:38;0;0;0
74436;PMS7003;62868;52.360;30.424;2023-03-19T03:39:08;0;0;0
74436;PMS7003;62868;52.360;30.424;2023-03-19T03:44:22;0;0;0
74436;PMS7003;62868;52.360;30.424;2023-03-19T03:48:32;0;0;0
74436;PMS7003;62868;52.360;30.424;2023-03-19T03:54:08;0;0;0
74436;PMS7003;62868;52.360;30.424;2023-03-19T03:59:08;0;0;0
74436;PMS7003;62868;52.360;30.424;2023-03-19T04:04:02;0;0;0
74436;PMS7003;62868;52.360;30.424;2023-03-19T04:08:38;0.3;0;0
74436;PMS7003;62868;52.360;30.424;2023-03-19T04:14:04;0;0;0
74436;PMS7003;62868;52.360;30.424;2023-03-19T04:19:22;0;0;0
74436;PMS7003;62868;52.360;30.424;2023-03-19T04:24:22;0;0;0
74436;PMS7003;62868;52.360;30.424;2023-03-19T04:28:32;0;0;0
74436;PMS7003;62868;52.360;30.424;2023-03-19T04:34:20;0;0;0
74436;PMS7003;62868;52.360;30.424;2023-03-19T04:39:08;0.3;0;0
74436;PMS7003;62868;52.360;30.424;2023-03-19T04:43:50;0;0;0
74436;PMS7003;62868;52.360;30.424;2023-03-19T04:48:42;0;0;0
74436;PMS7003;62868;52.360;30.424;2023-03-19T04:54:22;0;0;0
74436;PMS7003;62868;52.360;30.424;2023-03-19T04:58:52;0;0;0
74436;PMS7003;62868;52.360;30.424;2023-03-19T05:03:34;0;0;0
74436;PMS7003;62868;52.360;30.424;2023-03-19T05:09:22;0.7;0;0
74436;PMS7003;62868;52.360;30.424;2023-03-19T05:13:32;0.3;0;0
74436;PMS7003;62868;52.360;30.424;2023-03-19T05:18:38;0;0;0
74436;PMS7003;62868;52.360;30.424;2023-03-19T05:23:50;0.5;0;0
74436;PMS7003;62868;52.360;30.424;2023-03-19T05:28:44;0;0;0
74436;PMS7003;62868;52.360;30.424;2023-03-19T05:34:08;0.3;0;0
74436;PMS7003;62868;52.360;30.424;2023-03-19T05:38:32;0;0;0
74436;PMS7003;62868;52.360;30.424;2023-03-19T05:43:48;0;0;0
74436;PMS7003;62868;52.360;30.424;2023-03-19T05:49:08;0;0;0
74436;PMS7003;62868;52.360;30.424;2023-03-19T05:54:22;0;0;0
74436;PMS7003;62868;52.360;30.424;2023-03-19T05:59:06;0.7;0;0
74436;PMS7003;62868;52.360;30.424;2023-03-19T06:03:38;0;0;0
74436;PMS7003;62868;52.360;30.424;2023-03-19T06:08:38;0;0;0
74436;PMS7003;62868;52.360;30.424;2023-03-19T06:14:22;0;0;0
74436;PMS7003;62868;52.360;30.424;2023-03-19T06:18:54;0;0;0
74436;PMS7003;62868;52.360;30.424;2023-03-19T06:24:02;0.3;0;0
74436;PMS7003;62868;52.360;30.424;2023-03-19T06:29:18;0.7;0;0
74436;PMS7003;62868;52.360;30.424;2023-03-19T06:33:50;0;0;0
74436;PMS7003;62868;52.360;30.424;2023-03-19T06:38:38;0.5;0;0
74436;PMS7003;62868;52.360;30.424;2023-03-19T06:43:32;0;0;0
74436;PMS7003;62868;52.360;30.424;2023-03-19T06:49:22;0;0;0
74436;PMS7003;62868;52.360;30.424;2023-03-19T06:53:38;0.3;0;0
74436;PMS7003;62868;52.360;30.424;2023-03-19T06:59:22;0;0;0
74436;PMS7003;62868;52.360;30.424;2023-03-19T07:04:22;0.7;0.3;0
74436;PMS7003;62868;52.360;30.424;2023-03-19T07:08:38;1;1;0.3
74436;PMS7003;62868;52.360;30.424;2023-03-19T07:13:54;2;1.7;0.7
74436;PMS7003;62868;52.360;30.424;2023-03-19T07:18:52;1.8;0.8;0.3
74436;PMS7003;62868;52.360;30.424;2023-03-19T07:24:08;1;0.7;0.3
74436;PMS7003;62868;52.360;30.424;2023-03-19T07:29:08;0.3;0.3;0
74436;PMS7003;62868;52.360;30.424;2023-03-19T07:33:50;1.3;1;0.3
74436;PMS7003;62868;52.360;30.424;2023-03-19T07:39:22;0;0;0
74436;PMS7003;62868;52.360;30.424;2023-03-19T07:44:08;0;0;0
74436;PMS7003;62868;52.360;30.424;2023-03-19T07:48:32;1.3;0;0
74436;PMS7003;62868;52.360;30.424;2023-03-19T07:53:48;0.3;0;0
74436;PMS7003;62868;52.360;30.424;2023-03-19T07:59:22;0.3;0;0
74436;PMS7003;62868;52.360;30.424;2023-03-19T08:03:32;0.7;0;0
74436;PMS7003;62868;52.360;30.424;2023-03-19T08:09:04;0.3;0;0
74436;PMS7003;62868;52.360;30.424;2023-03-19T08:14:22;0.5;0.3;0
74436;PMS7003;62868;52.360;30.424;2023-03-19T08:18:48;0.3;0;0
74436;PMS7003;62868;52.360;30.424;2023-03-19T08:24:08;0.3;0.3;0
74436;PMS7003;62868;52.360;30.424;2023-03-19T08:29:08;0;0;0
74436;PMS7003;62868;52.360;30.424;2023-03-19T08:33:42;0;0;0
74436;PMS7003;62868;52.360;30.424;2023-03-19T08:39:08;1.3;1;0.3
74436;PMS7003;62868;52.360;30.424;2023-03-19T08:43:50;1.3;1;0.3
74436;PMS7003;62868;52.360;30.424;2023-03-19T08:48:32;1;1;0.3
74436;PMS7003;62868;52.360;30.424;2023-03-19T08:54:08;1.3;1;0.5
74436;PMS7003;62868;52.360;30.424;2023-03-19T08:59:22;1;1;0.3
74436;PMS7003;62868;52.360;30.424;2023-03-19T09:04:08;0.3;0.3;0.3
74436;PMS7003;62868;52.360;30.424;2023-03-19T09:08:54;1;0.5;0.3
74436;PMS7003;62868;52.360;30.424;2023-03-19T09:13:32;0.3;0;0
74436;PMS7003;62868;52.360;30.424;2023-03-19T09:19:22;0.7;0.3;0
74436;PMS7003;62868;52.360;30.424;2023-03-19T09:23:48;2.3;2;1.7
74436;PMS7003;62868;52.360;30.424;2023-03-19T09:28:33;2.8;2.5;2
74436;PMS7003;62868;52.360;30.424;2023-03-19T09:34:22;2.3;2;1.7
74436;PMS7003;62868;52.360;30.424;2023-03-19T09:39:08;2.7;1;1
74436;PMS7003;62868;52.360;30.424;2023-03-19T09:43:55;1.3;1;1
74436;PMS7003;62868;52.360;30.424;2023-03-19T09:49:21;1;0;0
74436;PMS7003;62868;52.360;30.424;2023-03-19T09:54:07;0;0;0
74436;PMS7003;62868;52.360;30.424;2023-03-19T09:58:38;0.8;0.3;0
74436;PMS7003;62868;52.360;30.424;2023-03-19T10:04:31;0.3;0.3;0
74436;PMS7003;62868;52.360;30.424;2023-03-19T10:09:25;0;0;0
74436;PMS7003;62868;52.360;30.424;2023-03-19T10:13:37;0;0;0
74436;PMS7003;62868;52.360;30.424;2023-03-19T10:18:56;0.8;0;0
74436;PMS7003;62868;52.360;30.424;2023-03-19T10:24:05;0;0;0
74436;PMS7003;62868;52.360;30.424;2023-03-19T10:29:07;0.3;0;0
74436;PMS7003;62868;52.360;30.424;2023-03-19T10:34:27;1;0.3;0.3
74436;PMS7003;62868;52.360;30.424;2023-03-19T10:38:32;2.8;1.5;1
74436;PMS7003;62868;52.360;30.424;2023-03-19T10:44:24;0.7;0;0
74436;PMS7003;62868;52.360;30.424;2023-03-19T10:49:10;0;0;0
74436;PMS7003;62868;52.360;30.424;2023-03-19T10:53:33;0.3;0.3;0
74436;PMS7003;62868;52.360;30.424;2023-03-19T10:58:58;0.8;0.5;0.3
74436;PMS7003;62868;52.360;30.424;2023-03-19T11:04:22;1;0.5;0
74436;PMS7003;62868;52.360;30.424;2023-03-19T11:08:33;0.3;0;0
74436;PMS7003;62868;52.360;30.424;2023-03-19T11:13:52;0.3;0;0
74436;PMS7003;62868;52.360;30.424;2023-03-19T11:18:35;0.3;0;0
74436;PMS7003;62868;52.360;30.424;2023-03-19T11:24:08;0;0;0
74436;PMS7003;62868;52.360;30.424;2023-03-19T11:29:07;0;0;0
74436;PMS7003;62868;52.360;30.424;2023-03-19T11:33:37;0.3;0.3;0
74436;PMS7003;62868;52.360;30.424;2023-03-19T11:38:40;0;0;0
74436;PMS7003;62868;52.360;30.424;2023-03-19T11:44:09;0.7;0.3;0.3
74436;PMS7003;62868;52.360;30.424;2023-03-19T11:48:58;0.5;0;0
74436;PMS7003;62868;52.360;30.424;2023-03-19T11:54:04;0;0;0
74436;PMS7003;62868;52.360;30.424;2023-03-19T11:59:12;0;0;0
74436;PMS7003;62868;52.360;30.424;2023-03-19T12:04:24;0.3;0;0
74436;PMS7003;62868;52.360;30.424;2023-03-19T12:08:32;0.3;0;0
74436;PMS7003;62868;52.360;30.424;2023-03-19T12:13:58;0;0;0
74436;PMS7003;62868;52.360;30.424;2023-03-19T12:19:13;0.3;0;0
74436;PMS7003;62868;52.360;30.424;2023-03-19T12:24:24;0;0;0
74436;PMS7003;62868;52.360;30.424;2023-03-19T12:28:56;0;0;0
74436;PMS7003;62868;52.360;30.424;2023-03-19T12:33:35;0;0;0
74436;PMS7003;62868;52.360;30.424;2023-03-19T12:39:23;0.3;0;0
74436;PMS7003;62868;52.360;30.424;2023-03-19T12:43:33;0;0;0
74436;PMS7003;62868;52.360;30.424;2023-03-19T12:48:39;0;0;0
74436;PMS7003;62868;52.360;30.424;2023-03-19T12:53:34;0;0;0
74436;PMS7003;62868;52.360;30.424;2023-03-19T12:59:23;0;0;0
74436;PMS7003;62868;52.360;30.424;2023-03-19T13:03:40;0;0;0
74436;PMS7003;62868;52.360;30.424;2023-03-19T13:09:24;0;0;0
74436;PMS7003;62868;52.360;30.424;2023-03-19T13:14:24;0.3;0;0
74436;PMS7003;62868;52.360;30.424;2023-03-19T13:18:39;0;0;0
74436;PMS7003;62868;52.360;30.424;2023-03-19T13:34:16;0;0;0
74436;PMS7003;62868;52.360;30.424;2023-03-19T13:39:10;0;0;0
74436;PMS7003;62868;52.360;30.424;2023-03-19T13:43:40;0;0;0
74436;PMS7003;62868;52.360;30.424;2023-03-19T13:49:23;0;0;0
74436;PMS7003;62868;52.360;30.424;2023-03-19T13:54:14;0;0;0
74436;PMS7003;62868;52.360;30.424;2023-03-19T13:58:43;0.7;0;0
74436;PMS7003;62868;52.360;30.424;2023-03-19T14:03:32;0;0;0
74436;PMS7003;62868;52.360;30.424;2023-03-19T14:09:31;0;0;0
74436;PMS7003;62868;52.360;30.424;2023-03-19T14:13:39;0;0;0
74436;PMS7003;62868;52.360;30.424;2023-03-19T14:19:08;0;0;0
74436;PMS7003;62868;52.360;30.424;2023-03-19T14:24:26;0;0;0
74436;PMS7003;62868;52.360;30.424;2023-03-19T14:28:34;0;0;0
74436;PMS7003;62868;52.360;30.424;2023-03-19T14:33:54;0;0;0
74436;PMS7003;62868;52.360;30.424;2023-03-19T14:38:52;0.8;0.3;0
74436;PMS7003;62868;52.360;30.424;2023-03-19T14:43:44;0;0;0
74436;PMS7003;62868;52.360;30.424;2023-03-19T14:49:16;0;0;0
74436;PMS7003;62868;52.360;30.424;2023-03-19T14:53:40;0;0;0
74436;PMS7003;62868;52.360;30.424;2023-03-19T14:58:51;0.7;0;0
74436;PMS7003;62868;52.360;30.424;2023-03-19T15:04:03;0;0;0
74436;PMS7003;62868;52.360;30.424;2023-03-19T15:09:09;0;0;0
74436;PMS7003;62868;52.360;30.424;2023-03-19T15:14:27;0;0;0
74436;PMS7003;62868;52.360;30.424;2023-03-19T15:18:48;0.3;0;0
74436;PMS7003;62868;52.360;30.424;2023-03-19T15:24:04;0;0;0
74436;PMS7003;62868;52.360;30.424;2023-03-19T15:29:29;0;0;0
74436;PMS7003;62868;52.360;30.424;2023-03-19T15:34:23;0.8;0.3;0
74436;PMS7003;62868;52.360;30.424;2023-03-19T15:38:51;0.3;0;0
74436;PMS7003;62868;52.360;30.424;2023-03-19T15:44:23;1;0;0
74436;PMS7003;62868;52.360;30.424;2023-03-19T15:49:09;0.3;0.3;0
74436;PMS7003;62868;52.360;30.424;2023-03-19T15:53:38;0;0;0
74436;PMS7003;62868;52.360;30.424;2023-03-19T15:58:50;0.7;0;0
74436;PMS7003;62868;52.360;30.424;2023-03-19T16:04:22;0.3;0.3;0
74436;PMS7003;62868;52.360;30.424;2023-03-19T16:08:44;0.5;0.3;0
74436;PMS7003;62868;52.360;30.424;2023-03-19T16:14:08;0.7;0.3;0
74436;PMS7003;62868;52.360;30.424;2023-03-19T16:19:26;0.3;0.3;0
74436;PMS7003;62868;52.360;30.424;2023-03-19T16:23:50;0.7;0;0
74436;PMS7003;62868;52.360;30.424;2023-03-19T16:28:58;1.3;1;1
74436;PMS7003;62868;52.360;30.424;2023-03-19T16:33:44;3;2.7;2
74436;PMS7003;62868;52.360;30.424;2023-03-19T16:38:43;7.7;7;4.3
74436;PMS7003;62868;52.360;30.424;2023-03-19T16:44:11;6.3;5.7;3.7
74436;PMS7003;62868;52.360;30.424;2023-03-19T16:48:50;5.8;3.5;2.5
74436;PMS7003;62868;52.360;30.424;2023-03-19T16:54:02;3.7;2.7;2.3
74436;PMS7003;62868;52.360;30.424;2023-03-19T16:59:09;4.7;4;2.7
74436;PMS7003;62868;52.360;30.424;2023-03-19T17:04:24;6.7;5.3;3.3
74436;PMS7003;62868;52.360;30.424;2023-03-19T17:08:41;9;8.3;6.3
74436;PMS7003;62868;52.360;30.424;2023-03-19T17:13:33;18;15.3;10
74436;PMS7003;62868;52.360;30.424;2023-03-19T17:18:40;15.3;11.7;7.3
74436;PMS7003;62868;52.360;30.424;2023-03-19T17:24:25;17.3;12.7;7.7
74436;PMS7003;62868;52.360;30.424;2023-03-19T17:29:12;11.5;8.8;6.5
74436;PMS7003;62868;52.360;30.424;2023-03-19T17:33:50;9;7.7;6.3
74436;PMS7003;62868;52.360;30.424;2023-03-19T17:39:27;11.7;9;5.7
74436;PMS7003;62868;52.360;30.424;2023-03-19T17:43:54;10.5;9;7
74436;PMS7003;62868;52.360;30.424;2023-03-19T17:49:27;11.7;9.3;7
74436;PMS7003;62868;52.360;30.424;2023-03-19T17:54:26;11.3;9.3;7.7
74436;PMS7003;62868;52.360;30.424;2023-03-19T17:59:26;11.3;9.3;6.7
74436;PMS7003;62868;52.360;30.424;2023-03-19T18:03:32;11.8;9.3;6.8
74436;PMS7003;62868;52.360;30.424;2023-03-19T18:09:26;9.7;8;4.7
74436;PMS7003;62868;52.360;30.424;2023-03-19T18:14:26;6.3;6;3.3
74436;PMS7003;62868;52.360;30.424;2023-03-19T18:18:48;3.3;3;2.3
74436;PMS7003;62868;52.360;30.424;2023-03-19T18:23:56;2.5;1.5;1
74436;PMS7003;62868;52.360;30.424;2023-03-19T18:28:56;2;0.3;0
74436;PMS7003;62868;52.360;30.424;2023-03-19T18:34:26;3.3;1.7;1
74436;PMS7003;62868;52.360;30.424;2023-03-19T18:39:13;5;3.3;2
74436;PMS7003;62868;52.360;30.424;2023-03-19T18:43:46;9.5;7.5;5.5
74436;PMS7003;62868;52.360;30.424;2023-03-19T18:49:26;9;6.7;4.7
74436;PMS7003;62868;52.360;30.424;2023-03-19T18:53:58;9;7.7;5.7
74436;PMS7003;62868;52.360;30.424;2023-03-19T18:59:15;11.7;8.7;5.3
74436;PMS7003;62868;52.360;30.424;2023-03-19T19:03:45;10.3;8;6
74436;PMS7003;62868;52.360;30.424;2023-03-19T19:09:26;9.3;6.7;4.7
74436;PMS7003;62868;52.360;30.424;2023-03-19T19:13:40;8.5;6.5;5.3
74436;PMS7003;62868;52.360;30.424;2023-03-19T19:19:13;9.3;6.3;4.7
74436;PMS7003;62868;52.360;30.424;2023-03-19T19:24:09;7.7;6.7;3.7
74436;PMS7003;62868;52.360;30.424;2023-03-19T19:28:57;7.3;5.7;5
74436;PMS7003;62868;52.360;30.424;2023-03-19T19:34:26;11.5;9;5.8
74436;PMS7003;62868;52.360;30.424;2023-03-19T19:38:54;11.7;10.3;7
74436;PMS7003;62868;52.360;30.424;2023-03-19T19:43:52;11.3;8.7;6.7
74436;PMS7003;62868;52.360;30.424;2023-03-19T19:49:26;12;9.7;7.3
74436;PMS7003;62868;52.360;30.424;2023-03-19T19:54:26;13;8.5;5.8
74436;PMS7003;62868;52.360;30.424;2023-03-19T19:58:40;11.3;8.7;6
74436;PMS7003;62868;52.360;30.424;2023-03-19T20:04:11;14.3;10;6.3
74436;PMS7003;62868;52.360;30.424;2023-03-19T20:09:26;8;7.3;5.3
74436;PMS7003;62868;52.360;30.424;2023-03-19T20:13:51;10.5;8.3;6.3
74436;PMS7003;62868;52.360;30.424;2023-03-19T20:18:32;7.3;6.3;5
74436;PMS7003;62868;52.360;30.424;2023-03-19T20:23:32;4.7;4.7;3.7
74436;PMS7003;62868;52.360;30.424;2023-03-19T20:29:26;8.3;5.7;3.7
74436;PMS7003;62868;52.360;30.424;2023-03-19T20:33:56;6.3;4;3
74436;PMS7003;62868;52.360;30.424;2023-03-19T20:38:32;5.7;5.3;3.7
74436;PMS7003;62868;52.360;30.424;2023-03-19T20:44:24;6.3;4;2.3
74436;PMS7003;62868;52.360;30.424;2023-03-19T20:49:12;5;3.8;2.3
74436;PMS7003;62868;52.360;30.424;2023-03-19T20:53:40;3.3;2.3;1.7
74436;PMS7003;62868;52.360;30.424;2023-03-19T20:58:52;4.3;2.3;1.7
74436;PMS7003;62868;52.360;30.424;2023-03-19T21:04:15;1.3;1.3;1.3
74436;PMS7003;62868;52.360;30.424;2023-03-19T21:08:41;1.5;1.5;1
74436;PMS7003;62868;52.360;30.424;2023-03-19T21:14:26;1.3;1;1
74436;PMS7003;62868;52.360;30.424;2023-03-19T21:19:26;3;2;1.7
74436;PMS7003;62868;52.360;30.424;2023-03-19T21:23:33;1.7;1;1
74436;PMS7003;62868;52.360;30.424;2023-03-19T21:28:41;2;1.5;1.3
74436;PMS7003;62868;52.360;30.424;2023-03-19T21:34:09;2.7;1;1
74436;PMS7003;62868;52.360;30.424;2023-03-19T21:39:08;3.3;1.3;1.3
74436;PMS7003;62868;52.360;30.424;2023-03-19T21:44:13;1.3;0.7;0.3
74436;PMS7003;62868;52.360;30.424;2023-03-19T21:48:40;1.5;0.5;0
74436;PMS7003;62868;52.360;30.424;2023-03-19T21:54:10;2.7;1.7;1
74436;PMS7003;62868;52.360;30.424;2023-03-19T21:58:51;1.3;0.7;0.3
74436;PMS7003;62868;52.360;30.424;2023-03-19T22:03:55;1.3;0.7;0.3
74436;PMS7003;62868;52.360;30.424;2023-03-19T22:08:40;1;0.8;0
74436;PMS7003;62868;52.360;30.424;2023-03-19T22:14:26;0;0;0
74436;PMS7003;62868;52.360;30.424;2023-03-19T22:18:32;0.7;0.3;0
74436;PMS7003;62868;52.360;30.424;2023-03-19T22:24:08;0;0;0
74436;PMS7003;62868;52.360;30.424;2023-03-19T22:29:13;0;0;0
74436;PMS7003;62868;52.360;30.424;2023-03-19T22:33:40;0;0;0
74436;PMS7003;62868;52.360;30.424;2023-03-19T22:39:08;0;0;0
74436;PMS7003;62868;52.360;30.424;2023-03-19T22:43:55;0.3;0;0
74436;PMS7003;62868;52.360;30.424;2023-03-19T22:48:41;0.7;0;0
74436;PMS7003;62868;52.360;30.424;2023-03-19T22:54:12;0;0;0
74436;PMS7003;62868;52.360;30.424;2023-03-19T22:59:24;0.3;0.3;0
74436;PMS7003;62868;52.360;30.424;2023-03-19T23:03:32;0;0;0
74436;PMS7003;62868;52.360;30.424;2023-03-19T23:09:10;0;0;0
74436;PMS7003;62868;52.360;30.424;2023-03-19T23:14:13;0;0;0
74436;PMS7003;62868;52.360;30.424;2023-03-19T23:19:08;0.7;0;0
74436;PMS7003;62868;52.360;30.424;2023-03-19T23:23:32;0;0;0
74436;PMS7003;62868;52.360;30.424;2023-03-19T23:29:25;0.3;0;0
74436;PMS7003;62868;52.360;30.424;2023-03-19T23:34:25;0.7;0;0
74436;PMS7003;62868;52.360;30.424;2023-03-19T23:39:12;0.3;0;0
74436;PMS7003;62868;52.360;30.424;2023-03-19T23:43:40;0.8;0;0
74436;PMS7003;62868;52.360;30.424;2023-03-19T23:49:25;0;0;0
74436;PMS7003;62868;52.360;30.424;2023-03-19T23:54:16;0;0;0
74436;PMS7003;62868;52.360;30.424;2023-03-19T23:58:40;0.7;0;0
